WAAA/UPG METAR and TAF weather

Enter ICAO airport designator
Station Type Date Time Source
WAAA METAR 2021/05/12 04:00 UTC NOAA

WAAA 120400Z 19003KT 130V240 9999 FEW020 32/25 Q1008 NOSIG


Station Type Date Time Source
WAAA Decoded METAR 2021/05/12 04:00 UTC NOAA

Ujung Pandang / Hasanuddin, Indonesia (WAAA) 05-04S 119-33E 14M
May 12, 2021 - 12:00 AM EDT / 2021.05.12 0400 UTC
Wind: from the S (190 degrees) at 3 MPH (3 KT) (direction variable):0
Visibility: greater than 7 mile(s):0
Sky conditions: mostly clear
Temperature: 89 F (32 C)
Heat index: 100.6 F (38.1 C):1
Dew Point: 77 F (25 C)
Relative Humidity: 66%
Pressure (altimeter): 29.77 in. Hg (1008 hPa)
ob: WAAA 120400Z 19003KT 130V240 9999 FEW020 32/25 Q1008 NOSIG
cycle: 4

Station Type Date Time Source
WAAA TAF 2021/05/11 18:11 UTC NOAA

TAF WAAA 111700Z 1118/1300 10003KT 8000 FEW019
BECMG 1122/1200 19005KT 9999
BECMG 1202/1204 28008KT

Example: see airport list